Time;durP1;ratioP1;P1;durP2;ratioP2;P2;SDS_P1;SDS_P2;PMS_P1;PMS_P2;Temp;Humidity;BMP_temperature;BMP_pressure;BME280_temperature;BME280_humidity;BME280_pressure;Samples;Min_cycle;Max_cycle;Signal;HPM_P1;HPM_P2
2021/07/10 00:02:03;;;;;;;;;0.00;0.00;;;;;-144.08;100.00;62200.94;5062812;28;45445;-64
2021/07/10 00:04:28;;;;;;;;;0.00;0.00;;;;;-144.08;100.00;62200.94;5059734;28;45256;-64
2021/07/10 00:06:56;;;;;;;;;0.00;0.00;;;;;-144.08;100.00;62200.94;5043368;28;45292;-63
2021/07/10 00:09:22;;;;;;;;;0.00;0.00;;;;;-144.08;100.00;62200.94;5043077;28;45288;-64
2021/07/10 00:11:47;;;;;;;;;0.00;0.00;;;;;-144.08;100.00;62200.94;5042965;28;45434;-64
2021/07/10 00:14:13;;;;;;;;;0.00;0.00;;;;;-144.08;100.00;62200.94;5042771;28;45322;-64
2021/07/10 00:16:38;;;;;;;;;0.00;0.00;;;;;-144.08;100.00;62200.94;5043179;28;45478;-64
2021/07/10 00:19:04;;;;;;;;;0.00;0.00;;;;;-144.08;100.00;62200.94;5042625;28;45260;-64
2021/07/10 00:21:30;;;;;;;;;0.00;0.00;;;;;-144.08;100.00;62200.94;5042754;28;46091;-64
2021/07/10 00:23:55;;;;;;;;;0.00;0.00;;;;;-144.08;100.00;62200.94;5042910;28;45302;-64
2021/07/10 00:26:20;;;;;;;;;0.00;0.00;;;;;-144.08;100.00;62200.94;5042980;28;45332;-64
2021/07/10 00:28:46;;;;;;;;;0.00;0.00;;;;;-144.08;100.00;62200.94;5042595;28;45576;-64
2021/07/10 00:31:11;;;;;;;;;0.00;0.00;;;;;-144.08;100.00;62200.94;5042558;28;46337;-64
2021/07/10 00:33:36;;;;;;;;;0.00;0.00;;;;;-144.08;100.00;62200.94;5029613;28;45346;-63
2021/07/10 00:36:02;;;;;;;;;0.00;0.00;;;;;-144.08;100.00;62200.94;5042792;28;45222;-63
2021/07/10 00:38:28;;;;;;;;;0.00;0.00;;;;;-144.08;100.00;62200.94;5042721;28;45236;-64
2021/07/10 00:40:53;;;;;;;;;0.00;0.00;;;;;-144.08;100.00;62200.94;5042800;28;46371;-64
2021/07/10 00:43:19;;;;;;;;;1.00;0.00;;;;;-144.08;100.00;62200.94;5042068;28;45269;-64
2021/07/10 00:45:44;;;;;;;;;0.00;0.00;;;;;-144.08;100.00;62200.94;5042811;28;45169;-64
2021/07/10 00:48:10;;;;;;;;;0.00;0.00;;;;;-144.08;100.00;62200.94;5042157;28;45585;-63
2021/07/10 00:50:35;;;;;;;;;0.00;0.00;;;;;-144.08;100.00;62200.94;5042184;28;46340;-64
2021/07/10 00:53:00;;;;;;;;;0.00;0.00;;;;;-144.08;100.00;62200.94;5041929;28;45506;-64
2021/07/10 00:55:26;;;;;;;;;0.00;0.00;;;;;-144.08;100.00;62200.94;5050959;28;45358;-64
2021/07/10 00:57:54;;;;;;;;;0.00;0.00;;;;;-144.08;100.00;62200.94;5028923;28;45569;-64
2021/07/10 01:00:21;;;;;;;;;0.00;0.00;;;;;-144.08;100.00;62200.94;5049461;28;48267;-64
2021/07/10 01:02:49;;;;;;;;;0.00;0.00;;;;;-144.08;100.00;62200.94;5061682;28;45292;-66
2021/07/10 01:05:26;;;;;;;;;0.00;0.00;;;;;-144.08;100.00;62200.94;5042220;28;45300;-64
2021/07/10 01:07:53;;;;;;;;;0.00;0.00;;;;;-144.08;100.00;62200.94;5042147;28;45325;-64
2021/07/10 01:10:19;;;;;;;;;0.00;0.00;;;;;-144.08;100.00;62200.94;5041911;28;46401;-63
2021/07/10 01:12:48;;;;;;;;;0.00;0.00;;;;;-144.08;100.00;62200.94;5041740;28;45320;-63
2021/07/10 01:15:15;;;;;;;;;0.00;0.00;;;;;-144.08;100.00;62200.94;5042217;28;45157;-63
2021/07/10 01:17:44;;;;;;;;;0.00;0.00;;;;;-144.08;100.00;62200.94;5041863;28;45348;-64
2021/07/10 01:20:12;;;;;;;;;0.00;0.00;;;;;-144.08;100.00;62200.94;5042153;28;45402;-64
2021/07/10 01:22:38;;;;;;;;;0.00;0.00;;;;;-144.08;100.00;62200.94;5041676;28;45265;-64
2021/07/10 01:25:06;;;;;;;;;0.00;0.00;;;;;-144.08;100.00;62200.94;5041979;28;45244;-63
2021/07/10 01:27:31;;;;;;;;;0.00;0.00;;;;;-144.08;100.00;62200.94;5041829;28;45439;-63
2021/07/10 01:29:58;;;;;;;;;0.00;0.00;;;;;-144.08;100.00;62200.94;5032471;28;47565;-64
2021/07/10 01:32:24;;;;;;;;;0.00;0.00;;;;;-144.08;100.00;62200.94;5041103;28;45355;-64
2021/07/10 01:34:50;;;;;;;;;0.00;0.00;;;;;-144.08;100.00;62200.94;5042017;28;45372;-63
2021/07/10 01:37:16;;;;;;;;;0.00;0.00;;;;;-144.08;100.00;62200.94;5041714;28;45547;-64
2021/07/10 01:39:43;;;;;;;;;0.00;0.00;;;;;-144.08;100.00;62200.94;5023737;28;48388;-63
2021/07/10 01:42:09;;;;;;;;;0.00;0.00;;;;;-144.08;100.00;62200.94;5041560;28;45236;-64
2021/07/10 01:44:36;;;;;;;;;0.00;0.00;;;;;-144.08;100.00;62200.94;5041682;28;45161;-64
2021/07/10 01:47:02;;;;;;;;;0.00;0.00;;;;;-144.08;100.00;62200.94;5023571;28;45403;-64
2021/07/10 01:49:27;;;;;;;;;0.00;0.00;;;;;-144.08;100.00;62200.94;5041953;28;46541;-63
2021/07/10 01:51:52;;;;;;;;;0.00;0.00;;;;;-144.08;100.00;62200.94;5040118;28;45338;-64
2021/07/10 01:54:17;;;;;;;;;0.00;0.00;;;;;-144.08;100.00;62200.94;5041920;28;45309;-64
2021/07/10 01:56:43;;;;;;;;;0.00;0.00;;;;;-144.08;100.00;62200.94;5055039;28;45537;-64
2021/07/10 01:59:08;;;;;;;;;0.00;0.00;;;;;-144.08;100.00;62200.94;5041264;28;46364;-62
2021/07/10 02:01:34;;;;;;;;;0.00;0.00;;;;;-144.08;100.00;62200.94;5059999;28;45252;-64
2021/07/10 02:04:00;;;;;;;;;0.00;0.00;;;;;-144.08;100.00;62200.94;5061372;28;45287;-63
2021/07/10 02:06:25;;;;;;;;;0.00;0.00;;;;;-144.08;100.00;62200.94;5043439;28;45320;-63
2021/07/10 02:08:51;;;;;;;;;0.00;0.00;;;;;-144.08;100.00;62200.94;5041483;28;45308;-64
2021/07/10 02:11:16;;;;;;;;;0.00;0.00;;;;;-144.08;100.00;62200.94;5040710;28;45434;-64
2021/07/10 02:13:42;;;;;;;;;0.00;0.00;;;;;-144.08;100.00;62200.94;5041592;28;45308;-63
2021/07/10 02:16:09;;;;;;;;;0.00;0.00;;;;;-144.08;100.00;62200.94;5041432;28;45207;-64
2021/07/10 02:18:34;;;;;;;;;0.00;0.00;;;;;-144.08;100.00;62200.94;5039589;28;47239;-62
2021/07/10 02:21:00;;;;;;;;;0.00;0.00;;;;;-144.08;100.00;62200.94;5039602;28;45193;-63
2021/07/10 02:23:25;;;;;;;;;0.00;0.00;;;;;-144.08;100.00;62200.94;5041570;28;45230;-63
2021/07/10 02:25:50;;;;;;;;;0.00;0.00;;;;;-144.08;100.00;62200.94;5041427;28;45642;-66
2021/07/10 02:28:16;;;;;;;;;0.00;0.00;;;;;-144.08;100.00;62200.94;5040901;28;46456;-63
2021/07/10 02:30:41;;;;;;;;;0.00;0.00;;;;;-144.08;100.00;62200.94;5040929;28;45369;-64
2021/07/10 02:33:06;;;;;;;;;0.00;0.00;;;;;-144.08;100.00;62200.94;5041108;28;45383;-63
2021/07/10 02:35:32;;;;;;;;;0.00;0.00;;;;;-144.08;100.00;62200.94;5041104;28;45272;-64
2021/07/10 02:37:59;;;;;;;;;0.00;0.00;;;;;-144.08;100.00;62200.94;5041114;28;46500;-63
2021/07/10 02:40:25;;;;;;;;;0.00;0.00;;;;;-144.08;100.00;62200.94;5040882;28;45355;-63
2021/07/10 02:42:51;;;;;;;;;0.00;0.00;;;;;-144.08;100.00;62200.94;5040904;28;45474;-65
2021/07/10 02:45:19;;;;;;;;;0.00;0.00;;;;;-144.08;100.00;62200.94;5041045;28;45275;-64
2021/07/10 02:47:46;;;;;;;;;0.00;0.00;;;;;-144.08;100.00;62200.94;5040490;28;45292;-64
2021/07/10 02:50:16;;;;;;;;;0.25;0.25;;;;;-144.08;100.00;62200.94;5040523;28;45369;-64
2021/07/10 02:52:41;;;;;;;;;1.75;0.00;;;;;-144.08;100.00;62200.94;5028113;28;45254;-63
2021/07/10 02:55:07;;;;;;;;;0.00;0.00;;;;;-144.08;100.00;62200.94;5026106;28;45456;-64
2021/07/10 02:57:32;;;;;;;;;0.00;0.00;;;;;-144.08;100.00;62200.94;5028449;28;45351;-63
2021/07/10 02:59:59;;;;;;;;;0.00;0.00;;;;;-144.08;100.00;62200.94;5025678;28;45237;-64
2021/07/10 03:02:24;;;;;;;;;0.00;0.00;;;;;-144.08;100.00;62200.94;5039228;28;45334;-63
2021/07/10 03:04:50;;;;;;;;;0.00;0.00;;;;;-144.08;100.00;62200.94;5035721;28;45406;-63
2021/07/10 03:07:15;;;;;;;;;0.00;0.00;;;;;-144.08;100.00;62200.94;5021000;28;46259;-63
2021/07/10 03:09:40;;;;;;;;;0.25;0.25;;;;;-144.08;100.00;62200.94;5020620;28;45216;-64
2021/07/10 03:12:06;;;;;;;;;0.00;0.00;;;;;-144.08;100.00;62200.94;5020989;28;45331;-63
2021/07/10 03:14:32;;;;;;;;;0.00;0.00;;;;;-144.08;100.00;62200.94;5020506;28;45384;-63
2021/07/10 03:16:57;;;;;;;;;0.00;0.00;;;;;-144.08;100.00;62200.94;5020245;28;45355;-64
2021/07/10 03:19:22;;;;;;;;;0.00;0.00;;;;;-144.08;100.00;62200.94;5020395;28;45315;-63
2021/07/10 03:21:49;;;;;;;;;0.00;0.00;;;;;-144.08;100.00;62200.94;5021025;28;45353;-64
2021/07/10 03:24:14;;;;;;;;;0.00;0.00;;;;;-144.08;100.00;62200.94;5022085;28;45328;-63
2021/07/10 03:26:40;;;;;;;;;0.00;0.00;;;;;-144.08;100.00;62200.94;5023926;28;45325;-63
2021/07/10 03:29:05;;;;;;;;;0.00;0.00;;;;;-144.08;100.00;62200.94;5023674;28;45384;-64
2021/07/10 03:31:31;;;;;;;;;0.00;0.00;;;;;-144.08;100.00;62200.94;5024063;28;45327;-64
2021/07/10 03:33:56;;;;;;;;;0.00;0.00;;;;;-144.08;100.00;62200.94;5022454;28;45298;-64
2021/07/10 03:36:24;;;;;;;;;0.00;0.00;;;;;-144.08;100.00;62200.94;5023741;28;45304;-63
2021/07/10 03:38:49;;;;;;;;;0.00;0.00;;;;;-144.08;100.00;62200.94;5023840;28;45275;-63
2021/07/10 03:41:15;;;;;;;;;0.00;0.00;;;;;-144.08;100.00;62200.94;5024136;28;45414;-63
2021/07/10 03:43:41;;;;;;;;;0.00;0.00;;;;;-144.08;100.00;62200.94;5038974;28;45413;-63
2021/07/10 03:46:06;;;;;;;;;1.00;1.00;;;;;-144.08;100.00;62200.94;5022279;28;47552;-63
2021/07/10 03:48:32;;;;;;;;;0.00;0.00;;;;;-144.08;100.00;62200.94;5023228;28;45464;-63
2021/07/10 03:51:01;;;;;;;;;0.00;0.00;;;;;-144.08;100.00;62200.94;5022219;28;45285;-63
2021/07/10 03:53:26;;;;;;;;;0.00;0.00;;;;;-144.08;100.00;62200.94;5039670;28;45164;-64
2021/07/10 03:55:52;;;;;;;;;0.00;0.00;;;;;-144.08;100.00;62200.94;5025678;28;48246;-63
2021/07/10 03:58:17;;;;;;;;;0.00;0.00;;;;;-144.08;100.00;62200.94;5038424;28;45249;-64
2021/07/10 04:00:43;;;;;;;;;0.00;0.00;;;;;-144.08;100.00;62200.94;5054984;28;45392;-65
2021/07/10 04:03:08;;;;;;;;;0.00;0.00;;;;;-144.08;100.00;62200.94;5045063;28;45506;-65
2021/07/10 04:05:34;;;;;;;;;0.00;0.00;;;;;-144.08;100.00;62200.94;5034346;28;47066;-65
2021/07/10 04:08:00;;;;;;;;;0.00;0.00;;;;;-144.08;100.00;62200.94;5042976;28;45308;-64
2021/07/10 04:10:26;;;;;;;;;0.00;0.00;;;;;-144.08;100.00;62200.94;5043545;28;45201;-64
2021/07/10 04:12:51;;;;;;;;;0.00;0.00;;;;;-144.08;100.00;62200.94;5043109;28;45474;-65
2021/07/10 04:15:19;;;;;;;;;0.00;0.00;;;;;-144.08;100.00;62200.94;5043078;28;46448;-64
2021/07/10 04:17:45;;;;;;;;;0.00;0.00;;;;;-144.08;100.00;62200.94;5024796;28;45351;-63
2021/07/10 04:20:11;;;;;;;;;0.00;0.00;;;;;-144.08;100.00;62200.94;5043397;28;45508;-63
2021/07/10 04:22:38;;;;;;;;;0.00;0.00;;;;;-144.08;100.00;62200.94;5043020;28;45259;-63
2021/07/10 04:25:07;;;;;;;;;0.00;0.00;;;;;-144.08;100.00;62200.94;5043245;28;45409;-64
2021/07/10 04:27:34;;;;;;;;;0.00;0.00;;;;;-144.08;100.00;62200.94;5042659;28;45339;-64
2021/07/10 04:30:00;;;;;;;;;0.00;0.00;;;;;-144.08;100.00;62200.94;5042957;28;45344;-64
2021/07/10 04:32:26;;;;;;;;;0.00;0.00;;;;;-144.08;100.00;62200.94;5042066;28;45362;-64
2021/07/10 04:34:51;;;;;;;;;0.00;0.00;;;;;-144.08;100.00;62200.94;5042417;28;45236;-64
2021/07/10 04:37:17;;;;;;;;;0.00;0.00;;;;;-144.08;100.00;62200.94;5039738;28;45581;-65
2021/07/10 04:39:42;;;;;;;;;0.00;0.00;;;;;-144.08;100.00;62200.94;5042910;28;45213;-65
2021/07/10 04:42:08;;;;;;;;;0.00;0.00;;;;;-144.08;100.00;62200.94;5042681;28;45316;-65
2021/07/10 04:44:34;;;;;;;;;0.00;0.00;;;;;-144.08;100.00;62200.94;5042467;28;45660;-64
2021/07/10 04:47:00;;;;;;;;;0.00;0.00;;;;;-144.08;100.00;62200.94;5042338;28;45433;-64
2021/07/10 04:49:26;;;;;;;;;0.00;0.00;;;;;-144.08;100.00;62200.94;5024795;28;45268;-64
2021/07/10 04:51:51;;;;;;;;;0.00;0.00;;;;;-144.08;100.00;62200.94;5024530;28;45553;-64
2021/07/10 04:54:16;;;;;;;;;0.00;0.00;;;;;-144.08;100.00;62200.94;5042503;28;45271;-64
2021/07/10 04:56:42;;;;;;;;;0.00;0.00;;;;;-144.08;100.00;62200.94;5042887;28;45430;-64
2021/07/10 04:59:07;;;;;;;;;0.00;0.00;;;;;-144.08;100.00;62200.94;5042558;28;45457;-64
2021/07/10 05:01:32;;;;;;;;;0.00;0.00;;;;;-144.08;100.00;62200.94;5061095;28;45486;-64
2021/07/10 05:03:58;;;;;;;;;0.00;0.00;;;;;-144.08;100.00;62200.94;5062203;28;46319;-65
2021/07/10 05:06:25;;;;;;;;;0.00;0.00;;;;;-144.08;100.00;62200.94;5044338;28;46068;-64
2021/07/10 05:08:50;;;;;;;;;0.00;0.00;;;;;-144.08;100.00;62200.94;5051161;28;45365;-64
2021/07/10 05:11:17;;;;;;;;;0.00;0.00;;;;;-144.08;100.00;62200.94;5042541;28;45255;-65
2021/07/10 05:13:42;;;;;;;;;0.00;0.00;;;;;-144.08;100.00;62200.94;5042286;28;46385;-64
2021/07/10 05:16:07;;;;;;;;;0.00;0.00;;;;;-144.08;100.00;62200.94;5042290;28;45204;-64
2021/07/10 05:18:33;;;;;;;;;0.00;0.00;;;;;-144.08;100.00;62200.94;5042171;28;45463;-64
2021/07/10 05:20:58;;;;;;;;;0.00;0.00;;;;;-144.08;100.00;62200.94;5042169;28;45413;-64
2021/07/10 05:23:24;;;;;;;;;0.00;0.00;;;;;-144.08;100.00;62200.94;5041945;28;45403;-64
2021/07/10 05:25:49;;;;;;;;;0.00;0.00;;;;;-144.08;100.00;62200.94;5041964;28;45218;-64
2021/07/10 05:28:14;;;;;;;;;0.00;0.00;;;;;-144.08;100.00;62200.94;5042553;28;45187;-63
2021/07/10 05:30:40;;;;;;;;;0.00;0.00;;;;;-144.08;100.00;62200.94;5042194;28;45183;-65
2021/07/10 05:33:06;;;;;;;;;0.00;0.00;;;;;-144.08;100.00;62200.94;5041719;28;46135;-66
2021/07/10 05:35:31;;;;;;;;;0.00;0.00;;;;;-144.08;100.00;62200.94;5041756;28;45303;-64
2021/07/10 05:37:56;;;;;;;;;0.00;0.00;;;;;-144.08;100.00;62200.94;5042112;28;45311;-64
2021/07/10 05:40:22;;;;;;;;;0.00;0.00;;;;;-144.08;100.00;62200.94;5042127;28;45351;-64
2021/07/10 05:42:48;;;;;;;;;0.00;0.00;;;;;-144.08;100.00;62200.94;5041746;28;45318;-64
2021/07/10 05:45:15;;;;;;;;;0.00;0.00;;;;;-144.08;100.00;62200.94;5037338;28;45951;-64
2021/07/10 05:47:41;;;;;;;;;0.00;0.00;;;;;-144.08;100.00;62200.94;5040645;28;45454;-64
2021/07/10 05:50:07;;;;;;;;;0.00;0.00;;;;;-144.08;100.00;62200.94;5041705;28;45316;-64
2021/07/10 05:52:33;;;;;;;;;0.00;0.00;;;;;-144.08;100.00;62200.94;5040989;28;47060;-64
2021/07/10 05:54:58;;;;;;;;;1.00;1.00;;;;;-144.08;100.00;62200.94;5040722;28;45320;-65
2021/07/10 05:57:24;;;;;;;;;0.00;0.00;;;;;-144.08;100.00;62200.94;5061617;28;45228;-65
2021/07/10 05:59:49;;;;;;;;;0.00;0.00;;;;;-144.08;100.00;62200.94;5046166;28;45229;-65
2021/07/10 06:02:14;;;;;;;;;0.00;0.00;;;;;-144.08;100.00;62200.94;5041034;28;45422;-65
2021/07/10 06:04:40;;;;;;;;;0.00;0.00;;;;;-144.08;100.00;62200.94;5051049;28;45157;-67
2021/07/10 06:07:07;;;;;;;;;0.00;0.00;;;;;-144.08;100.00;62200.94;5041818;28;45201;-64
2021/07/10 06:09:34;;;;;;;;;0.00;0.00;;;;;-144.08;100.00;62200.94;5041671;28;45664;-63
2021/07/10 06:11:59;;;;;;;;;0.00;0.00;;;;;-144.08;100.00;62200.94;5040807;28;46373;-63
2021/07/10 06:14:25;;;;;;;;;0.00;0.00;;;;;-144.08;100.00;62200.94;5041022;28;45410;-65
2021/07/10 06:16:50;;;;;;;;;0.00;0.00;;;;;-144.08;100.00;62200.94;5042128;28;45305;-64
2021/07/10 06:19:16;;;;;;;;;0.00;0.00;;;;;-144.08;100.00;62200.94;5041689;28;45470;-64
2021/07/10 06:21:41;;;;;;;;;0.00;0.00;;;;;-144.08;100.00;62200.94;5042109;28;46006;-65
2021/07/10 06:24:06;;;;;;;;;0.00;0.00;;;;;-144.08;100.00;62200.94;5048993;28;45426;-64
2021/07/10 06:26:32;;;;;;;;;0.00;0.00;;;;;-144.08;100.00;62200.94;5056130;28;45446;-64
2021/07/10 06:28:57;;;;;;;;;0.00;0.00;;;;;-144.08;100.00;62200.94;5060314;28;45642;-64
2021/07/10 06:31:23;;;;;;;;;0.00;0.00;;;;;-144.08;100.00;62200.94;5042722;28;45583;-65
2021/07/10 06:33:49;;;;;;;;;0.00;0.00;;;;;-144.08;100.00;62200.94;5057075;28;45419;-64
2021/07/10 06:36:14;;;;;;;;;0.00;0.00;;;;;-144.08;100.00;62200.94;5060202;28;45457;-65
2021/07/10 06:38:40;;;;;;;;;0.00;0.00;;;;;-144.08;100.00;62200.94;5060877;28;45187;-63
2021/07/10 06:41:05;;;;;;;;;0.00;0.00;;;;;-144.08;100.00;62200.94;5059931;28;45787;-64
2021/07/10 06:43:31;;;;;;;;;0.00;0.00;;;;;-144.08;100.00;62200.94;5058712;28;45335;-64
2021/07/10 06:45:56;;;;;;;;;0.00;0.00;;;;;-144.08;100.00;62200.94;5060216;28;45416;-64
2021/07/10 06:48:22;;;;;;;;;0.00;0.00;;;;;-144.08;100.00;62200.94;5058701;28;45514;-64
2021/07/10 06:50:47;;;;;;;;;0.00;0.00;;;;;-144.08;100.00;62200.94;5043915;28;47442;-65
2021/07/10 06:53:13;;;;;;;;;0.00;0.00;;;;;-144.08;100.00;62200.94;5042042;28;45248;-63
2021/07/10 06:55:39;;;;;;;;;0.00;0.00;;;;;-144.08;100.00;62200.94;5056229;28;45240;-64
2021/07/10 06:58:04;;;;;;;;;0.00;0.00;;;;;-144.08;100.00;62200.94;5048220;28;45644;-67
2021/07/10 07:00:30;;;;;;;;;0.00;0.00;;;;;-144.08;100.00;62200.94;5045525;28;47417;-65
2021/07/10 07:02:55;;;;;;;;;0.00;0.00;;;;;-144.08;100.00;62200.94;5045574;28;45406;-62
2021/07/10 07:05:20;;;;;;;;;0.00;0.00;;;;;-144.08;100.00;62200.94;5061954;28;45229;-62
2021/07/10 07:07:46;;;;;;;;;0.00;0.00;;;;;-144.08;100.00;62200.94;5032033;28;45609;-62
2021/07/10 07:10:12;;;;;;;;;0.00;0.00;;;;;-144.08;100.00;62200.94;5043525;28;46453;-62
2021/07/10 07:12:39;;;;;;;;;0.00;0.00;;;;;-144.08;100.00;62200.94;5046985;28;45196;-62
2021/07/10 07:15:07;;;;;;;;;0.00;0.00;;;;;-144.08;100.00;62200.94;5050043;28;45441;-62
2021/07/10 07:17:33;;;;;;;;;0.00;0.00;;;;;-144.08;100.00;62200.94;5063134;28;45639;-62
2021/07/10 07:19:58;;;;;;;;;0.00;0.00;;;;;-144.08;100.00;62200.94;5063657;28;46451;-61
2021/07/10 07:22:24;;;;;;;;;0.00;0.00;;;;;-144.08;100.00;62200.94;5047092;28;45382;-61
2021/07/10 07:24:49;;;;;;;;;0.00;0.00;;;;;-144.08;100.00;62200.94;5047114;28;47303;-62
2021/07/10 07:27:14;;;;;;;;;0.00;0.00;;;;;-144.08;100.00;62200.94;5050979;28;45220;-62
2021/07/10 07:29:40;;;;;;;;;0.00;0.00;;;;;-144.08;100.00;62200.94;5063693;28;46171;-61
2021/07/10 07:32:06;;;;;;;;;0.00;0.00;;;;;-144.08;100.00;62200.94;5052208;28;45263;-65
2021/07/10 07:34:31;;;;;;;;;0.00;0.00;;;;;-144.08;100.00;62200.94;5054951;28;45236;-62
2021/07/10 07:36:57;;;;;;;;;0.00;0.00;;;;;-144.08;100.00;62200.94;5043287;28;45237;-61
2021/07/10 07:39:22;;;;;;;;;0.00;0.00;;;;;-144.08;100.00;62200.94;5043374;28;46184;-61
2021/07/10 07:41:49;;;;;;;;;0.00;0.00;;;;;-144.08;100.00;62200.94;5042925;28;45439;-61
2021/07/10 07:44:14;;;;;;;;;0.00;0.00;;;;;-144.08;100.00;62200.94;5058079;28;45522;-62
2021/07/10 07:46:40;;;;;;;;;0.00;0.00;;;;;-144.08;100.00;62200.94;5062821;28;45568;-62
2021/07/10 07:49:05;;;;;;;;;0.00;0.00;;;;;-144.08;100.00;62200.94;5051869;28;54841;-61
2021/07/10 07:51:31;;;;;;;;;0.00;0.00;;;;;-144.08;100.00;62200.94;5052363;28;45220;-63
2021/07/10 07:53:56;;;;;;;;;0.00;0.00;;;;;-144.08;100.00;62200.94;5059949;28;45511;-61
2021/07/10 07:56:21;;;;;;;;;0.00;0.00;;;;;-144.08;100.00;62200.94;5058235;28;45612;-61
2021/07/10 07:58:47;;;;;;;;;0.00;0.00;;;;;-144.08;100.00;62200.94;5047240;28;45832;-62
2021/07/10 08:01:13;;;;;;;;;0.00;0.00;;;;;-144.08;100.00;62200.94;5055604;28;45529;-60
2021/07/10 08:03:39;;;;;;;;;0.00;0.00;;;;;-144.08;100.00;62200.94;5056244;28;45518;-61
2021/07/10 08:06:05;;;;;;;;;0.00;0.00;;;;;-144.08;100.00;62200.94;5043047;28;45332;-63
2021/07/10 08:08:30;;;;;;;;;0.00;0.00;;;;;-144.08;100.00;62200.94;5042893;28;45328;-62
2021/07/10 08:10:56;;;;;;;;;0.00;0.00;;;;;-144.08;100.00;62200.94;5058217;28;45295;-62
2021/07/10 08:13:21;;;;;;;;;0.00;0.00;;;;;-144.08;100.00;62200.94;5057578;28;45213;-62
2021/07/10 08:15:47;;;;;;;;;0.00;0.00;;;;;-144.08;100.00;62200.94;5047930;28;45194;-63
2021/07/10 08:18:13;;;;;;;;;0.00;0.00;;;;;-144.08;100.00;62200.94;5057124;28;46217;-63
2021/07/10 08:20:38;;;;;;;;;0.00;0.00;;;;;-144.08;100.00;62200.94;5053834;28;45465;-63
2021/07/10 08:23:04;;;;;;;;;0.00;0.00;;;;;-144.08;100.00;62200.94;5045807;28;45238;-62
2021/07/10 08:25:30;;;;;;;;;0.00;0.00;;;;;-144.08;100.00;62200.94;5059455;28;45402;-63
2021/07/10 08:27:56;;;;;;;;;0.00;0.00;;;;;-144.08;100.00;62200.94;5059532;28;46459;-62
2021/07/10 08:30:22;;;;;;;;;0.00;0.00;;;;;-144.08;100.00;62200.94;5043948;28;45265;-62
2021/07/10 08:32:48;;;;;;;;;0.00;0.00;;;;;-144.08;100.00;62200.94;5061894;28;45411;-62
2021/07/10 08:35:16;;;;;;;;;0.00;0.00;;;;;-144.08;100.00;62200.94;5050518;28;45581;-63
2021/07/10 08:37:43;;;;;;;;;0.00;0.00;;;;;-144.08;100.00;62200.94;5061983;28;46006;-63
2021/07/10 08:40:10;;;;;;;;;0.00;0.00;;;;;-144.08;100.00;62200.94;5056348;28;45271;-62
2021/07/10 08:42:36;;;;;;;;;0.00;0.00;;;;;-144.08;100.00;62200.94;5062210;28;45329;-63
2021/07/10 08:45:11;;;;;;;;;1.00;1.00;;;;;-144.08;100.00;62200.94;5044469;28;45447;-63
2021/07/10 08:47:39;;;;;;;;;0.00;0.00;;;;;-144.08;100.00;62200.94;5044026;28;46076;-62
2021/07/10 08:50:09;;;;;;;;;0.00;0.00;;;;;-144.08;100.00;62200.94;5058303;28;45524;-63
2021/07/10 08:52:35;;;;;;;;;0.00;0.00;;;;;-144.08;100.00;62200.94;5042173;28;45445;-63
2021/07/10 08:55:03;;;;;;;;;0.00;0.00;;;;;-144.08;100.00;62200.94;5045501;28;45189;-62
2021/07/10 08:57:31;;;;;;;;;0.00;0.00;;;;;-144.08;100.00;62200.94;5045287;28;45308;-62
2021/07/10 08:59:57;;;;;;;;;0.00;0.00;;;;;-144.08;100.00;62200.94;5060248;28;46783;-62
2021/07/10 09:02:22;;;;;;;;;0.00;0.00;;;;;-144.08;100.00;62200.94;5059895;28;45484;-62
2021/07/10 09:04:47;;;;;;;;;0.00;0.00;;;;;-144.08;100.00;62200.94;5051859;28;45363;-62
2021/07/10 09:07:13;;;;;;;;;0.00;0.00;;;;;-144.08;100.00;62200.94;5037592;28;46411;-63
2021/07/10 09:09:46;;;;;;;;;0.00;0.00;;;;;-144.08;100.00;62200.94;5041962;28;45272;-62
2021/07/10 09:12:13;;;;;;;;;0.00;0.00;;;;;-144.08;100.00;62200.94;5054024;28;45366;-62
2021/07/10 09:14:40;;;;;;;;;0.00;0.00;;;;;-144.08;100.00;62200.94;5061915;28;45390;-63
2021/07/10 09:17:16;;;;;;;;;0.00;0.00;;;;;-144.08;100.00;62200.94;5059451;28;45566;-62
2021/07/10 09:19:42;;;;;;;;;0.00;0.00;;;;;-144.08;100.00;62200.94;5051754;28;45403;-61
2021/07/10 09:22:07;;;;;;;;;0.00;0.00;;;;;-144.08;100.00;62200.94;5040236;28;45320;-62
2021/07/10 09:24:35;;;;;;;;;0.00;0.00;;;;;-144.08;100.00;62200.94;5041788;28;45563;-62
2021/07/10 09:27:05;;;;;;;;;0.00;0.00;;;;;-144.08;100.00;62200.94;5041305;28;46818;-63
2021/07/10 09:29:43;;;;;;;;;0.00;0.00;;;;;-144.08;100.00;62200.94;5047011;28;45267;-65
2021/07/10 09:32:14;;;;;;;;;0.00;0.00;;;;;-144.08;100.00;62200.94;5060833;28;45372;-62
2021/07/10 09:34:44;;;;;;;;;0.00;0.00;;;;;-144.08;100.00;62200.94;5061904;28;45573;-62
2021/07/10 09:37:13;;;;;;;;;0.00;0.00;;;;;-144.08;100.00;62200.94;5049433;28;45444;-62
2021/07/10 09:39:45;;;;;;;;;0.00;0.00;;;;;-144.08;100.00;62200.94;5044814;28;45319;-63
2021/07/10 09:42:14;;;;;;;;;0.00;0.00;;;;;-144.08;100.00;62200.94;5041511;28;45475;-62
2021/07/10 09:44:54;;;;;;;;;0.00;0.00;;;;;-144.08;100.00;62200.94;5041639;28;45325;-63
2021/07/10 09:47:34;;;;;;;;;0.00;0.00;;;;;-144.08;100.00;62200.94;5041729;28;46517;-62
2021/07/10 09:50:01;;;;;;;;;0.00;0.00;;;;;-144.08;100.00;62200.94;5047846;28;45484;-64
2021/07/10 09:52:31;;;;;;;;;0.00;0.00;;;;;-144.08;100.00;62200.94;5042869;28;45523;-62
2021/07/10 09:55:04;;;;;;;;;0.00;0.00;;;;;-144.08;100.00;62200.94;5060537;28;45514;-63
2021/07/10 09:57:32;;;;;;;;;0.00;0.00;;;;;-144.08;100.00;62200.94;5043359;28;46449;-62
2021/07/10 10:00:16;;;;;;;;;0.00;0.00;;;;;-144.08;100.00;62200.94;5040863;28;45248;-64
2021/07/10 10:02:44;;;;;;;;;0.00;0.00;;;;;-144.08;100.00;62200.94;5047255;28;45357;-63
2021/07/10 10:05:13;;;;;;;;;0.00;0.00;;;;;-144.08;100.00;62200.94;5051239;28;45223;-65
2021/07/10 10:07:53;;;;;;;;;0.00;0.00;;;;;-144.08;100.00;62200.94;5060915;28;46133;-62
2021/07/10 10:10:22;;;;;;;;;0.00;0.00;;;;;-144.08;100.00;62200.94;5050350;28;45851;-62
2021/07/10 10:13:11;;;;;;;;;0.00;0.00;;;;;-144.08;100.00;62200.94;5040673;28;45359;-62
2021/07/10 10:15:51;;;;;;;;;0.00;0.00;;;;;-144.08;100.00;62200.94;5046602;28;45541;-62
2021/07/10 10:18:22;;;;;;;;;0.00;0.00;;;;;-144.08;100.00;62200.94;5039861;28;48234;-67
2021/07/10 10:20:49;;;;;;;;;0.00;0.00;;;;;-144.08;100.00;62200.94;5044487;28;45438;-63
2021/07/10 10:23:16;;;;;;;;;0.00;0.00;;;;;-144.08;100.00;62200.94;5043134;28;45505;-63
2021/07/10 10:25:43;;;;;;;;;0.00;0.00;;;;;-144.08;100.00;62200.94;5058879;28;45510;-63
2021/07/10 10:28:18;;;;;;;;;0.00;0.00;;;;;-144.08;100.00;62200.94;5047578;28;46453;-63
2021/07/10 10:30:44;;;;;;;;;0.00;0.00;;;;;-144.08;100.00;62200.94;5044668;28;45731;-62
2021/07/10 10:33:10;;;;;;;;;0.00;0.00;;;;;-144.08;100.00;62200.94;5061029;28;45403;-64
2021/07/10 10:35:35;;;;;;;;;0.00;0.00;;;;;-144.08;100.00;62200.94;5052546;28;45325;-62
2021/07/10 10:38:01;;;;;;;;;0.00;0.00;;;;;-144.08;100.00;62200.94;5049567;28;45384;-61
2021/07/10 10:40:28;;;;;;;;;0.00;0.00;;;;;-144.08;100.00;62200.94;5062321;28;45331;-62
2021/07/10 10:42:56;;;;;;;;;0.00;0.00;;;;;-144.08;100.00;62200.94;5063640;28;45431;-62
2021/07/10 10:45:33;;;;;;;;;0.00;0.00;;;;;-144.08;100.00;62200.94;5050796;28;45481;-61
2021/07/10 10:47:59;;;;;;;;;0.00;0.00;;;;;-144.08;100.00;62200.94;5054420;28;45543;-63
2021/07/10 10:50:31;;;;;;;;;0.00;0.00;;;;;-144.08;100.00;62200.94;5047610;28;46745;-63
2021/07/10 10:52:58;;;;;;;;;0.00;0.00;;;;;-144.08;100.00;62200.94;5043532;28;45398;-64
2021/07/10 10:55:29;;;;;;;;;0.00;0.00;;;;;-144.08;100.00;62200.94;5050131;28;45465;-64
2021/07/10 10:58:26;;;;;;;;;0.00;0.00;;;;;-144.08;100.00;62200.94;5036203;28;47202;-62
2021/07/10 11:01:08;;;;;;;;;0.00;0.00;;;;;-144.08;100.00;62200.94;5042365;28;45478;-63
2021/07/10 11:03:36;;;;;;;;;0.00;0.00;;;;;-144.08;100.00;62200.94;5047603;28;45451;-63
2021/07/10 11:06:02;;;;;;;;;0.00;0.00;;;;;-144.08;100.00;62200.94;5045915;28;45445;-62
2021/07/10 11:08:49;;;;;;;;;0.00;0.00;;;;;-144.08;100.00;62200.94;5052928;28;45641;-63